»·PEaware :: UAL691 KSFO-KSAN

UAL691 :: KSFO-KSAN

FLIGHT INFORMATION

Flight Status: Arrived
Operator:
United Airlines
More flights by this operator :: More flights under this callsign
Pilot: Alfredo R. (12181)
Aircraft: BOEING 737-800
(B738)
More flights by this aircraft type
Origin: KSFO San Francisco Intl
United States
Destination: KSAN San Diego Intl-Lindbergh
United States
More flights between these airports :: More routes between these airports
Route: +OFFSH1 MCKEY LAX COMIX1
File this flight plan on PilotEdge
Remarks:
Altitude:
(Current/Filed)
25,000ft
Speed:
(Current/Filed)
440kts
Departed: 05-Dec-17 06:58 PM
Arrived: 05-Dec-17 08:14 PM
Distance/Time
Traveled:
388nm/1:15
Distance/Time
To Go:
Arrived

Flight Plot

Page will automatically refresh every two minutes.

Flight plan parsing failed; only flown route is shown


Map Options




Map Legend


Flown Route
Filed Route
Departure Airport
Arrival Airport
Navaid (VOR, NDB)
Fix

Horizontal Profiles

Position Reports

Time Latitude Longitude Heading Altitude Ground
Speed
05-Dec-17 18:37 37.619756 -122.384002 213 20ft 0kts
05-Dec-17 18:38 37.619756 -122.384002 213 20ft 0kts
05-Dec-17 18:39 37.619756 -122.384002 213 20ft 0kts
05-Dec-17 18:40 37.619756 -122.384002 213 20ft 0kts
05-Dec-17 18:41 37.619756 -122.384002 213 20ft 0kts
05-Dec-17 18:42 37.619756 -122.384002 213 20ft 0kts
05-Dec-17 18:43 37.619756 -122.384002 213 20ft 0kts
05-Dec-17 18:44 37.619756 -122.384002 213 20ft 0kts
05-Dec-17 18:45 37.619756 -122.384002 213 20ft 0kts
05-Dec-17 18:46 37.619756 -122.384002 213 20ft 0kts
05-Dec-17 18:47 37.619756 -122.384002 213 20ft 0kts
05-Dec-17 18:48 37.619756 -122.384002 213 20ft 0kts
05-Dec-17 18:49 37.619756 -122.384002 213 20ft 0kts
05-Dec-17 18:50 37.619756 -122.384002 213 20ft 0kts
05-Dec-17 18:51 37.619865 -122.383908 216 21ft 2kts
05-Dec-17 18:52 37.620357 -122.383682 136 20ft 2kts
05-Dec-17 18:53 37.620468 -122.383954 117 20ft 0kts
05-Dec-17 18:54 37.620468 -122.383954 117 20ft 0kts
05-Dec-17 18:55 37.620468 -122.383954 117 20ft 0kts
05-Dec-17 18:56 37.620468 -122.383954 117 20ft 0kts
05-Dec-17 18:57 37.620341 -122.383647 117 20ft 4kts
05-Dec-17 18:58 37.619446 -122.381497 118 20ft 10kts
05-Dec-17 18:59 37.616900 -122.379505 194 21ft 14kts
05-Dec-17 19:00 37.612616 -122.382294 208 20ft 18kts
05-Dec-17 19:01 37.609086 -122.384759 173 20ft 7kts
05-Dec-17 19:02 37.608205 -122.383183 106 21ft 7kts
05-Dec-17 19:03 37.612320 -122.380003 27 21ft 48kts
05-Dec-17 19:04 37.643885 -122.358862 22 768ft 168kts
05-Dec-17 19:05 37.689072 -122.357412 312 2558ft 191kts
05-Dec-17 19:06 37.676547 -122.413703 206 4778ft 210kts
05-Dec-17 19:07 37.622421 -122.382715 110 6040ft 272kts
05-Dec-17 19:08 37.555762 -122.356515 201 8513ft 297kts
05-Dec-17 19:09 37.478157 -122.397155 195 10661ft 324kts
05-Dec-17 19:10 37.388399 -122.428081 194 12941ft 344kts
05-Dec-17 19:11 37.294859 -122.459864 195 15291ft 357kts
05-Dec-17 19:12 37.214496 -122.487121 195 17441ft 369kts
05-Dec-17 19:13 37.096956 -122.526907 195 20215ft 386kts
05-Dec-17 19:14 36.991680 -122.562457 195 22383ft 400kts
05-Dec-17 19:15 36.900252 -122.556364 165 24016ft 406kts
05-Dec-17 19:16 36.797253 -122.529157 166 25268ft 422kts
05-Dec-17 19:17 36.657879 -122.493112 166 25280ft 455kts
05-Dec-17 19:18 36.554929 -122.466503 167 25276ft 454kts
05-Dec-17 19:19 36.432102 -122.432952 156 25246ft 451kts
05-Dec-17 19:21 36.333980 -122.305407 128 25277ft 442kts
05-Dec-17 19:21 36.267251 -122.210184 128 25277ft 442kts
05-Dec-17 19:22 36.186617 -122.094956 128 25275ft 443kts
05-Dec-17 19:23 36.106333 -121.980201 127 25276ft 442kts
05-Dec-17 19:24 36.026807 -121.866206 127 25277ft 443kts
05-Dec-17 19:25 35.947109 -121.751972 127 25275ft 442kts
05-Dec-17 19:26 35.867633 -121.637667 127 25271ft 443kts
05-Dec-17 19:27 35.788687 -121.524256 127 24651ft 438kts
05-Dec-17 19:28 35.709984 -121.410801 126 23860ft 440kts
05-Dec-17 19:29 35.631575 -121.297710 127 23251ft 432kts
05-Dec-17 19:30 35.554909 -121.186992 126 23256ft 426kts
05-Dec-17 19:31 35.479377 -121.077544 124 23249ft 426kts
05-Dec-17 19:32 35.411787 -120.961516 122 23210ft 425kts
05-Dec-17 19:33 35.342528 -120.845203 122 23209ft 425kts
05-Dec-17 19:34 35.274734 -120.730887 121 23211ft 424kts
05-Dec-17 19:35 35.205801 -120.614718 122 23213ft 423kts
05-Dec-17 19:36 35.137455 -120.499228 121 23211ft 423kts
05-Dec-17 19:37 35.069141 -120.383594 121 23211ft 423kts
05-Dec-17 19:38 35.000760 -120.267588 121 23215ft 424kts
05-Dec-17 19:39 34.932461 -120.151713 121 23208ft 420kts
05-Dec-17 19:40 34.864544 -120.036045 121 23207ft 420kts
05-Dec-17 19:41 34.796712 -119.920514 120 23228ft 421kts
05-Dec-17 19:42 34.729272 -119.805464 120 23225ft 424kts
05-Dec-17 19:43 34.661650 -119.689718 120 23178ft 426kts
05-Dec-17 19:44 34.593535 -119.573215 119 23180ft 425kts
05-Dec-17 19:45 34.526592 -119.458304 120 23172ft 425kts
05-Dec-17 19:46 34.458871 -119.341833 119 23195ft 426kts
05-Dec-17 19:47 34.391007 -119.225189 120 23199ft 426kts
05-Dec-17 19:48 34.323796 -119.109328 120 23202ft 424kts
05-Dec-17 19:49 34.258888 -118.997248 119 23214ft 416kts
05-Dec-17 19:50 34.192286 -118.881999 120 23205ft 420kts
05-Dec-17 19:51 34.126008 -118.767121 120 23217ft 421kts
05-Dec-17 19:52 34.059521 -118.651855 119 23176ft 420kts
05-Dec-17 19:53 33.993959 -118.537878 119 23175ft 423kts
05-Dec-17 19:54 33.928271 -118.424984 127 23137ft 418kts
05-Dec-17 19:55 33.852027 -118.327026 128 23166ft 409kts
05-Dec-17 19:56 33.776026 -118.228686 127 22902ft 406kts
05-Dec-17 19:57 33.701056 -118.130332 128 21974ft 403kts
05-Dec-17 19:58 33.626733 -118.033092 128 20784ft 389kts
05-Dec-17 19:59 33.556530 -117.941035 127 19604ft 378kts
05-Dec-17 20:00 33.484028 -117.856042 130 18391ft 368kts
05-Dec-17 20:01 33.413085 -117.772280 127 17167ft 356kts
05-Dec-17 20:02 33.345963 -117.690478 127 15984ft 348kts
05-Dec-17 20:03 33.279484 -117.609577 127 14786ft 341kts
05-Dec-17 20:04 33.204568 -117.540084 138 13586ft 350kts
05-Dec-17 20:05 33.128127 -117.476142 138 12225ft 336kts
05-Dec-17 20:06 33.054756 -117.414894 139 11055ft 328kts
05-Dec-17 20:07 32.984509 -117.356054 139 9805ft 300kts
05-Dec-17 20:08 32.923201 -117.304704 139 8599ft 256kts
05-Dec-17 20:09 32.869023 -117.259573 139 7752ft 250kts
05-Dec-17 20:10 32.816829 -117.213994 125 6906ft 249kts
05-Dec-17 20:11 32.792690 -117.146047 106 6006ft 225kts
05-Dec-17 20:12 32.772615 -117.081502 106 5144ft 221kts
05-Dec-17 20:13 32.753367 -117.015626 105 4041ft 227kts
05-Dec-17 20:14 32.723742 -116.955263 169 3031ft 226kts
05-Dec-17 20:15 32.697095 -117.003276 269 1997ft 190kts
05-Dec-17 20:16 32.701602 -117.057606 287 1991ft 168kts
05-Dec-17 20:17 32.713827 -117.108457 287 1343ft 151kts
05-Dec-17 20:18 32.724784 -117.153618 285 603ft 143kts
05-Dec-17 20:19 32.734510 -117.193678 285 25ft 33kts
05-Dec-17 20:20 32.735036 -117.198444 250 25ft 0kts
05-Dec-17 20:21 32.734665 -117.199331 214 25ft 6kts
05-Dec-17 20:22 32.733723 -117.198985 148 24ft 0kts
05-Dec-17 20:23 32.733723 -117.198985 148 24ft 0kts

Navigation Log

Ident Type
Flight plan parsing failed, navigation log unavailable